sensor_id;sensor_type;location;lat;lon;timestamp;P1;durP1;ratioP1;P2;durP2;ratioP2
15287;SDS011;7745;48.708;9.026;2022-12-07T00:00:57;16.00;;;10.00;;
15287;SDS011;7745;48.708;9.026;2022-12-07T00:03:31;14.47;;;10.03;;
15287;SDS011;7745;48.708;9.026;2022-12-07T00:06:01;14.73;;;10.77;;
15287;SDS011;7745;48.708;9.026;2022-12-07T00:08:30;13.47;;;9.97;;
15287;SDS011;7745;48.708;9.026;2022-12-07T00:11:01;13.80;;;10.47;;
15287;SDS011;7745;48.708;9.026;2022-12-07T00:13:29;13.07;;;9.87;;
15287;SDS011;7745;48.708;9.026;2022-12-07T00:16:03;13.77;;;10.07;;
15287;SDS011;7745;48.708;9.026;2022-12-07T00:18:35;13.10;;;9.57;;
15287;SDS011;7745;48.708;9.026;2022-12-07T00:21:03;14.33;;;10.40;;
15287;SDS011;7745;48.708;9.026;2022-12-07T00:23:31;15.03;;;10.77;;
15287;SDS011;7745;48.708;9.026;2022-12-07T00:26:02;14.07;;;10.60;;
15287;SDS011;7745;48.708;9.026;2022-12-07T00:28:30;12.60;;;9.87;;
15287;SDS011;7745;48.708;9.026;2022-12-07T00:30:59;14.43;;;10.87;;
15287;SDS011;7745;48.708;9.026;2022-12-07T00:33:36;13.77;;;10.70;;
15287;SDS011;7745;48.708;9.026;2022-12-07T00:36:04;14.37;;;11.03;;
15287;SDS011;7745;48.708;9.026;2022-12-07T00:38:34;18.00;;;12.07;;
15287;SDS011;7745;48.708;9.026;2022-12-07T00:41:03;15.33;;;11.00;;
15287;SDS011;7745;48.708;9.026;2022-12-07T00:43:32;15.27;;;11.10;;
15287;SDS011;7745;48.708;9.026;2022-12-07T00:45:59;15.53;;;12.57;;
15287;SDS011;7745;48.708;9.026;2022-12-07T00:48:41;16.13;;;11.90;;
15287;SDS011;7745;48.708;9.026;2022-12-07T00:51:12;16.20;;;11.43;;
15287;SDS011;7745;48.708;9.026;2022-12-07T00:53:48;15.00;;;11.37;;
15287;SDS011;7745;48.708;9.026;2022-12-07T00:56:25;15.37;;;11.60;;
15287;SDS011;7745;48.708;9.026;2022-12-07T00:58:56;18.33;;;11.97;;
15287;SDS011;7745;48.708;9.026;2022-12-07T01:01:31;15.33;;;11.20;;
15287;SDS011;7745;48.708;9.026;2022-12-07T01:04:03;18.50;;;12.80;;
15287;SDS011;7745;48.708;9.026;2022-12-07T01:06:32;15.03;;;11.97;;
15287;SDS011;7745;48.708;9.026;2022-12-07T01:09:05;15.70;;;11.80;;
15287;SDS011;7745;48.708;9.026;2022-12-07T01:11:35;13.87;;;11.17;;
15287;SDS011;7745;48.708;9.026;2022-12-07T01:14:06;15.27;;;11.53;;
15287;SDS011;7745;48.708;9.026;2022-12-07T01:16:39;13.27;;;11.00;;
15287;SDS011;7745;48.708;9.026;2022-12-07T01:19:09;14.80;;;11.67;;
15287;SDS011;7745;48.708;9.026;2022-12-07T01:21:41;13.63;;;11.43;;
15287;SDS011;7745;48.708;9.026;2022-12-07T01:24:16;15.27;;;12.47;;
15287;SDS011;7745;48.708;9.026;2022-12-07T01:26:48;14.70;;;11.63;;
15287;SDS011;7745;48.708;9.026;2022-12-07T01:29:18;17.23;;;11.80;;
15287;SDS011;7745;48.708;9.026;2022-12-07T01:31:53;14.17;;;12.00;;
15287;SDS011;7745;48.708;9.026;2022-12-07T01:34:27;15.13;;;11.87;;
15287;SDS011;7745;48.708;9.026;2022-12-07T01:36:56;15.43;;;11.33;;
15287;SDS011;7745;48.708;9.026;2022-12-07T01:39:26;16.87;;;12.53;;
15287;SDS011;7745;48.708;9.026;2022-12-07T01:41:57;16.97;;;12.63;;
15287;SDS011;7745;48.708;9.026;2022-12-07T01:44:30;15.53;;;11.43;;
15287;SDS011;7745;48.708;9.026;2022-12-07T01:47:16;14.77;;;11.30;;
15287;SDS011;7745;48.708;9.026;2022-12-07T01:49:46;16.80;;;12.70;;
15287;SDS011;7745;48.708;9.026;2022-12-07T01:52:16;15.10;;;12.03;;
15287;SDS011;7745;48.708;9.026;2022-12-07T01:55:06;16.13;;;12.43;;
15287;SDS011;7745;48.708;9.026;2022-12-07T01:57:39;14.30;;;11.10;;
15287;SDS011;7745;48.708;9.026;2022-12-07T02:00:16;15.10;;;11.17;;
15287;SDS011;7745;48.708;9.026;2022-12-07T02:02:53;16.27;;;11.27;;
15287;SDS011;7745;48.708;9.026;2022-12-07T02:05:33;15.73;;;12.17;;
15287;SDS011;7745;48.708;9.026;2022-12-07T02:08:12;14.37;;;11.33;;
15287;SDS011;7745;48.708;9.026;2022-12-07T02:10:41;14.43;;;11.07;;
15287;SDS011;7745;48.708;9.026;2022-12-07T02:13:15;16.27;;;11.67;;
15287;SDS011;7745;48.708;9.026;2022-12-07T02:18:59;15.40;;;12.13;;
15287;SDS011;7745;48.708;9.026;2022-12-07T02:21:40;14.87;;;11.43;;
15287;SDS011;7745;48.708;9.026;2022-12-07T02:30:16;15.37;;;11.83;;
15287;SDS011;7745;48.708;9.026;2022-12-07T02:32:48;15.33;;;11.97;;
15287;SDS011;7745;48.708;9.026;2022-12-07T02:35:24;17.97;;;12.40;;
15287;SDS011;7745;48.708;9.026;2022-12-07T02:38:02;16.07;;;11.47;;
15287;SDS011;7745;48.708;9.026;2022-12-07T02:40:40;17.00;;;11.93;;
15287;SDS011;7745;48.708;9.026;2022-12-07T02:43:16;15.07;;;11.70;;
15287;SDS011;7745;48.708;9.026;2022-12-07T02:45:53;17.33;;;12.57;;
15287;SDS011;7745;48.708;9.026;2022-12-07T02:48:24;14.23;;;11.20;;
15287;SDS011;7745;48.708;9.026;2022-12-07T02:50:57;16.80;;;11.67;;
15287;SDS011;7745;48.708;9.026;2022-12-07T02:53:31;13.80;;;11.20;;
15287;SDS011;7745;48.708;9.026;2022-12-07T02:56:06;15.43;;;12.17;;
15287;SDS011;7745;48.708;9.026;2022-12-07T02:58:44;15.00;;;12.20;;
15287;SDS011;7745;48.708;9.026;2022-12-07T03:01:25;16.40;;;11.97;;
15287;SDS011;7745;48.708;9.026;2022-12-07T03:04:02;15.00;;;11.67;;
15287;SDS011;7745;48.708;9.026;2022-12-07T03:06:40;15.37;;;11.60;;
15287;SDS011;7745;48.708;9.026;2022-12-07T03:09:19;13.10;;;10.90;;
15287;SDS011;7745;48.708;9.026;2022-12-07T03:11:55;13.50;;;11.20;;
15287;SDS011;7745;48.708;9.026;2022-12-07T03:14:31;12.60;;;10.47;;
15287;SDS011;7745;48.708;9.026;2022-12-07T03:17:12;13.03;;;10.77;;
15287;SDS011;7745;48.708;9.026;2022-12-07T03:19:43;14.30;;;11.20;;
15287;SDS011;7745;48.708;9.026;2022-12-07T03:22:12;14.43;;;11.33;;
15287;SDS011;7745;48.708;9.026;2022-12-07T03:24:46;13.63;;;11.50;;
15287;SDS011;7745;48.708;9.026;2022-12-07T03:27:18;15.97;;;12.27;;
15287;SDS011;7745;48.708;9.026;2022-12-07T03:29:54;14.97;;;11.63;;
15287;SDS011;7745;48.708;9.026;2022-12-07T03:32:27;13.97;;;10.93;;
15287;SDS011;7745;48.708;9.026;2022-12-07T03:35:03;13.17;;;10.73;;
15287;SDS011;7745;48.708;9.026;2022-12-07T03:37:35;14.13;;;11.43;;
15287;SDS011;7745;48.708;9.026;2022-12-07T03:40:08;15.97;;;12.20;;
15287;SDS011;7745;48.708;9.026;2022-12-07T03:42:43;14.37;;;11.47;;
15287;SDS011;7745;48.708;9.026;2022-12-07T03:45:25;14.80;;;11.60;;
15287;SDS011;7745;48.708;9.026;2022-12-07T03:48:07;15.73;;;12.43;;
15287;SDS011;7745;48.708;9.026;2022-12-07T03:50:47;14.87;;;11.83;;
15287;SDS011;7745;48.708;9.026;2022-12-07T03:53:22;15.30;;;11.30;;
15287;SDS011;7745;48.708;9.026;2022-12-07T03:55:55;15.17;;;11.77;;
15287;SDS011;7745;48.708;9.026;2022-12-07T03:58:33;15.20;;;12.67;;
15287;SDS011;7745;48.708;9.026;2022-12-07T04:01:07;17.83;;;12.67;;
15287;SDS011;7745;48.708;9.026;2022-12-07T04:03:36;16.77;;;12.37;;
15287;SDS011;7745;48.708;9.026;2022-12-07T04:06:03;15.23;;;11.37;;
15287;SDS011;7745;48.708;9.026;2022-12-07T04:08:36;17.53;;;12.80;;
15287;SDS011;7745;48.708;9.026;2022-12-07T04:11:06;18.37;;;12.63;;
15287;SDS011;7745;48.708;9.026;2022-12-07T04:13:36;17.50;;;13.00;;
15287;SDS011;7745;48.708;9.026;2022-12-07T04:16:19;19.47;;;13.23;;
15287;SDS011;7745;48.708;9.026;2022-12-07T04:18:54;14.13;;;11.13;;
15287;SDS011;7745;48.708;9.026;2022-12-07T04:21:30;16.83;;;11.80;;
15287;SDS011;7745;48.708;9.026;2022-12-07T04:24:04;14.73;;;11.33;;
15287;SDS011;7745;48.708;9.026;2022-12-07T04:26:37;17.80;;;14.00;;
15287;SDS011;7745;48.708;9.026;2022-12-07T04:29:16;15.43;;;12.03;;
15287;SDS011;7745;48.708;9.026;2022-12-07T04:31:52;12.67;;;10.43;;
15287;SDS011;7745;48.708;9.026;2022-12-07T04:34:29;13.07;;;10.63;;
15287;SDS011;7745;48.708;9.026;2022-12-07T04:37:03;13.77;;;10.33;;
15287;SDS011;7745;48.708;9.026;2022-12-07T04:39:36;13.07;;;10.47;;
15287;SDS011;7745;48.708;9.026;2022-12-07T04:42:06;16.40;;;10.13;;
15287;SDS011;7745;48.708;9.026;2022-12-07T04:44:37;13.67;;;10.70;;
15287;SDS011;7745;48.708;9.026;2022-12-07T04:47:09;14.10;;;10.77;;
15287;SDS011;7745;48.708;9.026;2022-12-07T04:52:26;13.47;;;10.73;;
15287;SDS011;7745;48.708;9.026;2022-12-07T04:54:58;13.00;;;10.83;;
15287;SDS011;7745;48.708;9.026;2022-12-07T04:57:28;14.97;;;11.53;;
15287;SDS011;7745;48.708;9.026;2022-12-07T04:59:58;15.57;;;11.07;;
15287;SDS011;7745;48.708;9.026;2022-12-07T05:02:37;14.73;;;10.87;;
15287;SDS011;7745;48.708;9.026;2022-12-07T05:05:10;13.60;;;11.07;;
15287;SDS011;7745;48.708;9.026;2022-12-07T05:07:41;14.50;;;10.50;;
15287;SDS011;7745;48.708;9.026;2022-12-07T05:10:14;14.13;;;10.80;;
15287;SDS011;7745;48.708;9.026;2022-12-07T05:12:58;15.83;;;11.43;;
15287;SDS011;7745;48.708;9.026;2022-12-07T05:15:40;13.23;;;10.63;;
15287;SDS011;7745;48.708;9.026;2022-12-07T05:18:16;14.77;;;10.20;;
15287;SDS011;7745;48.708;9.026;2022-12-07T05:20:55;13.57;;;10.23;;
15287;SDS011;7745;48.708;9.026;2022-12-07T05:23:31;13.57;;;10.13;;
15287;SDS011;7745;48.708;9.026;2022-12-07T05:26:00;14.10;;;10.70;;
15287;SDS011;7745;48.708;9.026;2022-12-07T05:28:33;15.53;;;9.80;;
15287;SDS011;7745;48.708;9.026;2022-12-07T05:31:05;12.43;;;9.80;;
15287;SDS011;7745;48.708;9.026;2022-12-07T05:33:35;13.60;;;9.07;;
15287;SDS011;7745;48.708;9.026;2022-12-07T05:36:12;12.47;;;8.53;;
15287;SDS011;7745;48.708;9.026;2022-12-07T05:38:54;13.17;;;9.03;;
15287;SDS011;7745;48.708;9.026;2022-12-07T05:41:33;13.57;;;8.90;;
15287;SDS011;7745;48.708;9.026;2022-12-07T05:44:19;13.37;;;9.97;;
15287;SDS011;7745;48.708;9.026;2022-12-07T05:47:12;13.03;;;9.63;;
15287;SDS011;7745;48.708;9.026;2022-12-07T05:49:45;12.00;;;9.10;;
15287;SDS011;7745;48.708;9.026;2022-12-07T05:57:40;10.33;;;8.33;;
15287;SDS011;7745;48.708;9.026;2022-12-07T06:01:07;13.00;;;9.23;;
15287;SDS011;7745;48.708;9.026;2022-12-07T06:04:08;12.47;;;9.63;;
15287;SDS011;7745;48.708;9.026;2022-12-07T06:07:04;15.73;;;10.47;;
15287;SDS011;7745;48.708;9.026;2022-12-07T06:09:35;15.87;;;11.30;;
15287;SDS011;7745;48.708;9.026;2022-12-07T06:12:25;15.20;;;11.43;;
15287;SDS011;7745;48.708;9.026;2022-12-07T06:15:25;14.77;;;10.40;;
15287;SDS011;7745;48.708;9.026;2022-12-07T06:18:34;16.23;;;11.30;;
15287;SDS011;7745;48.708;9.026;2022-12-07T06:21:34;16.47;;;11.20;;
15287;SDS011;7745;48.708;9.026;2022-12-07T06:24:09;17.20;;;11.20;;
15287;SDS011;7745;48.708;9.026;2022-12-07T06:26:59;16.00;;;11.93;;
15287;SDS011;7745;48.708;9.026;2022-12-07T06:29:54;14.40;;;9.90;;
15287;SDS011;7745;48.708;9.026;2022-12-07T06:36:14;12.33;;;9.43;;
15287;SDS011;7745;48.708;9.026;2022-12-07T06:38:59;13.30;;;10.40;;
15287;SDS011;7745;48.708;9.026;2022-12-07T06:44:57;12.83;;;9.77;;
15287;SDS011;7745;48.708;9.026;2022-12-07T06:50:31;12.40;;;9.20;;
15287;SDS011;7745;48.708;9.026;2022-12-07T06:53:30;11.63;;;8.60;;
15287;SDS011;7745;48.708;9.026;2022-12-07T06:56:19;10.97;;;8.30;;
15287;SDS011;7745;48.708;9.026;2022-12-07T06:58:58;11.27;;;8.40;;
15287;SDS011;7745;48.708;9.026;2022-12-07T07:02:03;11.93;;;8.30;;
15287;SDS011;7745;48.708;9.026;2022-12-07T07:04:44;12.43;;;8.37;;
15287;SDS011;7745;48.708;9.026;2022-12-07T07:07:33;12.17;;;9.20;;
15287;SDS011;7745;48.708;9.026;2022-12-07T07:10:10;15.30;;;10.07;;
15287;SDS011;7745;48.708;9.026;2022-12-07T07:15:49;14.80;;;10.37;;
15287;SDS011;7745;48.708;9.026;2022-12-07T07:18:26;13.93;;;10.17;;
15287;SDS011;7745;48.708;9.026;2022-12-07T07:21:15;16.97;;;11.17;;
15287;SDS011;7745;48.708;9.026;2022-12-07T07:24:05;15.47;;;11.17;;
15287;SDS011;7745;48.708;9.026;2022-12-07T07:26:52;15.70;;;10.67;;
15287;SDS011;7745;48.708;9.026;2022-12-07T07:29:27;16.10;;;11.00;;
15287;SDS011;7745;48.708;9.026;2022-12-07T07:31:54;16.57;;;10.70;;
15287;SDS011;7745;48.708;9.026;2022-12-07T07:34:29;17.93;;;12.57;;
15287;SDS011;7745;48.708;9.026;2022-12-07T07:36:58;19.43;;;12.40;;
15287;SDS011;7745;48.708;9.026;2022-12-07T07:39:26;17.00;;;11.37;;
15287;SDS011;7745;48.708;9.026;2022-12-07T07:41:54;18.97;;;11.63;;
15287;SDS011;7745;48.708;9.026;2022-12-07T07:44:21;13.93;;;10.80;;
15287;SDS011;7745;48.708;9.026;2022-12-07T07:46:48;13.73;;;10.10;;
15287;SDS011;7745;48.708;9.026;2022-12-07T07:49:16;16.13;;;10.50;;
15287;SDS011;7745;48.708;9.026;2022-12-07T07:51:46;13.80;;;9.90;;
15287;SDS011;7745;48.708;9.026;2022-12-07T07:54:16;14.00;;;9.80;;
15287;SDS011;7745;48.708;9.026;2022-12-07T07:56:51;15.27;;;9.80;;
15287;SDS011;7745;48.708;9.026;2022-12-07T07:59:20;14.27;;;10.53;;
15287;SDS011;7745;48.708;9.026;2022-12-07T08:01:47;13.87;;;8.97;;
15287;SDS011;7745;48.708;9.026;2022-12-07T08:04:17;12.47;;;9.20;;
15287;SDS011;7745;48.708;9.026;2022-12-07T08:17:49;12.77;;;8.63;;
15287;SDS011;7745;48.708;9.026;2022-12-07T08:26:39;11.13;;;7.83;;
15287;SDS011;7745;48.708;9.026;2022-12-07T08:29:11;12.83;;;9.07;;
15287;SDS011;7745;48.708;9.026;2022-12-07T08:32:15;10.73;;;7.83;;
15287;SDS011;7745;48.708;9.026;2022-12-07T09:05:13;10.93;;;6.73;;
15287;SDS011;7745;48.708;9.026;2022-12-07T09:11:47;8.80;;;6.83;;
15287;SDS011;7745;48.708;9.026;2022-12-07T09:14:57;9.90;;;7.20;;
15287;SDS011;7745;48.708;9.026;2022-12-07T09:21:36;8.87;;;6.30;;
15287;SDS011;7745;48.708;9.026;2022-12-07T09:31:34;8.57;;;6.07;;
15287;SDS011;7745;48.708;9.026;2022-12-07T09:34:39;8.13;;;5.93;;
15287;SDS011;7745;48.708;9.026;2022-12-07T09:40:46;9.17;;;6.60;;
15287;SDS011;7745;48.708;9.026;2022-12-07T09:46:56;11.80;;;6.10;;
15287;SDS011;7745;48.708;9.026;2022-12-07T09:49:44;11.70;;;6.47;;
15287;SDS011;7745;48.708;9.026;2022-12-07T09:52:47;8.83;;;6.73;;
15287;SDS011;7745;48.708;9.026;2022-12-07T09:56:17;10.17;;;6.37;;
15287;SDS011;7745;48.708;9.026;2022-12-07T09:58:50;9.10;;;5.90;;
15287;SDS011;7745;48.708;9.026;2022-12-07T10:31:41;8.53;;;4.97;;
15287;SDS011;7745;48.708;9.026;2022-12-07T10:34:15;5.97;;;4.83;;
15287;SDS011;7745;48.708;9.026;2022-12-07T10:36:49;6.47;;;5.10;;
15287;SDS011;7745;48.708;9.026;2022-12-07T10:39:33;8.87;;;5.43;;
15287;SDS011;7745;48.708;9.026;2022-12-07T10:45:43;10.10;;;5.73;;
15287;SDS011;7745;48.708;9.026;2022-12-07T10:48:42;7.57;;;5.43;;
15287;SDS011;7745;48.708;9.026;2022-12-07T10:54:57;8.47;;;5.07;;
15287;SDS011;7745;48.708;9.026;2022-12-07T11:04:14;6.90;;;4.83;;
15287;SDS011;7745;48.708;9.026;2022-12-07T11:07:02;6.80;;;4.67;;
15287;SDS011;7745;48.708;9.026;2022-12-07T11:10:04;7.00;;;5.10;;
15287;SDS011;7745;48.708;9.026;2022-12-07T11:13:16;7.20;;;5.17;;
15287;SDS011;7745;48.708;9.026;2022-12-07T11:19:00;10.97;;;4.63;;
15287;SDS011;7745;48.708;9.026;2022-12-07T11:21:48;6.73;;;4.50;;
15287;SDS011;7745;48.708;9.026;2022-12-07T11:24:32;6.17;;;4.90;;
15287;SDS011;7745;48.708;9.026;2022-12-07T11:27:15;7.63;;;5.40;;
15287;SDS011;7745;48.708;9.026;2022-12-07T11:30:57;6.27;;;4.80;;
15287;SDS011;7745;48.708;9.026;2022-12-07T11:40:56;4.80;;;3.80;;
15287;SDS011;7745;48.708;9.026;2022-12-07T11:44:07;4.93;;;3.40;;
15287;SDS011;7745;48.708;9.026;2022-12-07T11:46:49;5.53;;;4.80;;
15287;SDS011;7745;48.708;9.026;2022-12-07T11:52:51;5.70;;;4.30;;
15287;SDS011;7745;48.708;9.026;2022-12-07T11:55:40;7.97;;;4.57;;
15287;SDS011;7745;48.708;9.026;2022-12-07T11:58:49;5.23;;;4.37;;
15287;SDS011;7745;48.708;9.026;2022-12-07T12:07:57;5.33;;;4.00;;
15287;SDS011;7745;48.708;9.026;2022-12-07T12:24:39;3.43;;;2.53;;
15287;SDS011;7745;48.708;9.026;2022-12-07T12:30:44;2.83;;;2.50;;
15287;SDS011;7745;48.708;9.026;2022-12-07T12:33:43;3.03;;;2.67;;
15287;SDS011;7745;48.708;9.026;2022-12-07T12:36:23;5.93;;;3.57;;
15287;SDS011;7745;48.708;9.026;2022-12-07T12:39:34;6.77;;;4.17;;
15287;SDS011;7745;48.708;9.026;2022-12-07T12:53:13;4.60;;;2.90;;
15287;SDS011;7745;48.708;9.026;2022-12-07T13:02:09;5.77;;;2.80;;
15287;SDS011;7745;48.708;9.026;2022-12-07T13:04:53;7.47;;;3.00;;
15287;SDS011;7745;48.708;9.026;2022-12-07T13:10:38;4.67;;;3.37;;
15287;SDS011;7745;48.708;9.026;2022-12-07T13:32:36;7.83;;;4.63;;
15287;SDS011;7745;48.708;9.026;2022-12-07T13:38:50;5.90;;;4.30;;
15287;SDS011;7745;48.708;9.026;2022-12-07T13:48:05;6.27;;;4.83;;
15287;SDS011;7745;48.708;9.026;2022-12-07T13:51:17;5.93;;;4.57;;
15287;SDS011;7745;48.708;9.026;2022-12-07T13:57:47;5.07;;;4.50;;
15287;SDS011;7745;48.708;9.026;2022-12-07T14:00:56;5.20;;;4.10;;
15287;SDS011;7745;48.708;9.026;2022-12-07T14:03:30;4.50;;;4.10;;
15287;SDS011;7745;48.708;9.026;2022-12-07T14:06:10;5.03;;;4.03;;
15287;SDS011;7745;48.708;9.026;2022-12-07T14:11:57;7.20;;;4.20;;
15287;SDS011;7745;48.708;9.026;2022-12-07T14:14:34;8.20;;;4.27;;
15287;SDS011;7745;48.708;9.026;2022-12-07T14:17:11;7.87;;;4.37;;
15287;SDS011;7745;48.708;9.026;2022-12-07T14:20:01;5.40;;;3.53;;
15287;SDS011;7745;48.708;9.026;2022-12-07T14:22:53;5.90;;;3.67;;
15287;SDS011;7745;48.708;9.026;2022-12-07T14:25:44;3.70;;;3.30;;
15287;SDS011;7745;48.708;9.026;2022-12-07T14:28:27;4.60;;;3.20;;
15287;SDS011;7745;48.708;9.026;2022-12-07T14:31:10;4.00;;;3.30;;
15287;SDS011;7745;48.708;9.026;2022-12-07T14:33:38;4.30;;;3.60;;
15287;SDS011;7745;48.708;9.026;2022-12-07T14:36:18;8.17;;;3.40;;
15287;SDS011;7745;48.708;9.026;2022-12-07T14:38:45;5.10;;;3.80;;
15287;SDS011;7745;48.708;9.026;2022-12-07T14:41:14;5.23;;;3.23;;
15287;SDS011;7745;48.708;9.026;2022-12-07T14:44:09;5.67;;;3.97;;
15287;SDS011;7745;48.708;9.026;2022-12-07T14:46:54;6.47;;;4.70;;
15287;SDS011;7745;48.708;9.026;2022-12-07T14:49:27;6.90;;;4.47;;
15287;SDS011;7745;48.708;9.026;2022-12-07T14:51:55;6.03;;;4.97;;
15287;SDS011;7745;48.708;9.026;2022-12-07T14:54:35;6.67;;;4.70;;
15287;SDS011;7745;48.708;9.026;2022-12-07T14:57:06;5.73;;;4.77;;
15287;SDS011;7745;48.708;9.026;2022-12-07T14:59:49;6.10;;;5.00;;
15287;SDS011;7745;48.708;9.026;2022-12-07T15:02:35;6.20;;;5.13;;
15287;SDS011;7745;48.708;9.026;2022-12-07T15:05:15;6.53;;;5.13;;
15287;SDS011;7745;48.708;9.026;2022-12-07T15:07:46;6.10;;;4.80;;
15287;SDS011;7745;48.708;9.026;2022-12-07T15:10:32;8.47;;;5.77;;
15287;SDS011;7745;48.708;9.026;2022-12-07T15:13:11;6.40;;;5.50;;
15287;SDS011;7745;48.708;9.026;2022-12-07T15:15:57;7.90;;;5.43;;
15287;SDS011;7745;48.708;9.026;2022-12-07T15:18:24;7.47;;;5.70;;
15287;SDS011;7745;48.708;9.026;2022-12-07T15:20:57;11.77;;;7.17;;
15287;SDS011;7745;48.708;9.026;2022-12-07T15:26:31;7.87;;;5.73;;
15287;SDS011;7745;48.708;9.026;2022-12-07T15:29:02;10.20;;;6.30;;
15287;SDS011;7745;48.708;9.026;2022-12-07T15:31:38;10.07;;;7.60;;
15287;SDS011;7745;48.708;9.026;2022-12-07T15:34:10;8.67;;;6.37;;
15287;SDS011;7745;48.708;9.026;2022-12-07T15:36:47;11.47;;;7.03;;
15287;SDS011;7745;48.708;9.026;2022-12-07T15:39:24;9.77;;;6.90;;
15287;SDS011;7745;48.708;9.026;2022-12-07T15:41:54;9.27;;;6.50;;
15287;SDS011;7745;48.708;9.026;2022-12-07T15:44:24;7.70;;;6.00;;
15287;SDS011;7745;48.708;9.026;2022-12-07T15:47:21;10.63;;;6.87;;
15287;SDS011;7745;48.708;9.026;2022-12-07T15:53:57;10.83;;;6.77;;
15287;SDS011;7745;48.708;9.026;2022-12-07T15:56:34;9.53;;;7.57;;
15287;SDS011;7745;48.708;9.026;2022-12-07T15:59:05;12.77;;;8.20;;
15287;SDS011;7745;48.708;9.026;2022-12-07T16:01:43;11.63;;;8.80;;
15287;SDS011;7745;48.708;9.026;2022-12-07T16:04:10;14.70;;;9.33;;
15287;SDS011;7745;48.708;9.026;2022-12-07T16:06:39;10.93;;;8.13;;
15287;SDS011;7745;48.708;9.026;2022-12-07T16:09:06;11.33;;;8.23;;
15287;SDS011;7745;48.708;9.026;2022-12-07T16:11:39;13.90;;;10.67;;
15287;SDS011;7745;48.708;9.026;2022-12-07T16:14:12;11.73;;;8.43;;
15287;SDS011;7745;48.708;9.026;2022-12-07T16:16:56;12.10;;;8.80;;
15287;SDS011;7745;48.708;9.026;2022-12-07T16:19:25;12.73;;;9.23;;
15287;SDS011;7745;48.708;9.026;2022-12-07T16:21:55;12.00;;;8.67;;
15287;SDS011;7745;48.708;9.026;2022-12-07T16:27:05;14.63;;;9.43;;
15287;SDS011;7745;48.708;9.026;2022-12-07T16:29:50;13.73;;;8.30;;
15287;SDS011;7745;48.708;9.026;2022-12-07T16:32:26;12.40;;;9.10;;
15287;SDS011;7745;48.708;9.026;2022-12-07T16:35:05;13.20;;;8.97;;
15287;SDS011;7745;48.708;9.026;2022-12-07T16:38:11;13.97;;;8.60;;
15287;SDS011;7745;48.708;9.026;2022-12-07T16:47:30;14.83;;;9.07;;
15287;SDS011;7745;48.708;9.026;2022-12-07T16:50:08;13.10;;;9.20;;
15287;SDS011;7745;48.708;9.026;2022-12-07T16:52:45;12.47;;;9.07;;
15287;SDS011;7745;48.708;9.026;2022-12-07T16:55:17;12.60;;;8.53;;
15287;SDS011;7745;48.708;9.026;2022-12-07T16:57:44;12.67;;;9.63;;
15287;SDS011;7745;48.708;9.026;2022-12-07T17:00:13;13.13;;;9.33;;
15287;SDS011;7745;48.708;9.026;2022-12-07T17:02:40;14.83;;;9.37;;
15287;SDS011;7745;48.708;9.026;2022-12-07T17:05:07;14.60;;;9.43;;
15287;SDS011;7745;48.708;9.026;2022-12-07T17:07:37;15.30;;;10.40;;
15287;SDS011;7745;48.708;9.026;2022-12-07T17:10:04;13.87;;;10.43;;
15287;SDS011;7745;48.708;9.026;2022-12-07T17:12:32;15.63;;;10.57;;
15287;SDS011;7745;48.708;9.026;2022-12-07T17:14:59;14.17;;;10.47;;
15287;SDS011;7745;48.708;9.026;2022-12-07T17:17:44;14.60;;;10.93;;
15287;SDS011;7745;48.708;9.026;2022-12-07T17:20:12;12.90;;;9.90;;
15287;SDS011;7745;48.708;9.026;2022-12-07T17:22:41;14.27;;;9.90;;
15287;SDS011;7745;48.708;9.026;2022-12-07T17:25:08;13.93;;;10.00;;
15287;SDS011;7745;48.708;9.026;2022-12-07T17:27:36;14.00;;;10.00;;
15287;SDS011;7745;48.708;9.026;2022-12-07T17:30:03;14.63;;;10.83;;
15287;SDS011;7745;48.708;9.026;2022-12-07T17:32:30;15.33;;;10.50;;
15287;SDS011;7745;48.708;9.026;2022-12-07T17:34:59;15.57;;;10.50;;
15287;SDS011;7745;48.708;9.026;2022-12-07T17:37:26;17.73;;;10.73;;
15287;SDS011;7745;48.708;9.026;2022-12-07T17:39:53;17.83;;;11.07;;
15287;SDS011;7745;48.708;9.026;2022-12-07T17:42:22;14.83;;;10.37;;
15287;SDS011;7745;48.708;9.026;2022-12-07T17:45:05;17.70;;;10.60;;
15287;SDS011;7745;48.708;9.026;2022-12-07T17:47:34;17.70;;;11.60;;
15287;SDS011;7745;48.708;9.026;2022-12-07T17:50:06;16.00;;;11.20;;
15287;SDS011;7745;48.708;9.026;2022-12-07T17:52:36;16.63;;;12.10;;
15287;SDS011;7745;48.708;9.026;2022-12-07T17:55:17;17.80;;;11.63;;
15287;SDS011;7745;48.708;9.026;2022-12-07T17:57:47;15.67;;;11.27;;
15287;SDS011;7745;48.708;9.026;2022-12-07T18:00:20;16.70;;;11.83;;
15287;SDS011;7745;48.708;9.026;2022-12-07T18:02:49;18.10;;;12.23;;
15287;SDS011;7745;48.708;9.026;2022-12-07T18:05:18;18.27;;;12.27;;
15287;SDS011;7745;48.708;9.026;2022-12-07T18:07:45;19.27;;;13.33;;
15287;SDS011;7745;48.708;9.026;2022-12-07T18:10:12;17.77;;;12.57;;
15287;SDS011;7745;48.708;9.026;2022-12-07T18:12:39;15.83;;;12.00;;
15287;SDS011;7745;48.708;9.026;2022-12-07T18:15:06;16.07;;;11.63;;
15287;SDS011;7745;48.708;9.026;2022-12-07T18:17:33;18.97;;;12.10;;
15287;SDS011;7745;48.708;9.026;2022-12-07T18:20:00;15.37;;;11.07;;
15287;SDS011;7745;48.708;9.026;2022-12-07T18:22:28;15.17;;;11.37;;
15287;SDS011;7745;48.708;9.026;2022-12-07T18:24:55;16.33;;;12.23;;
15287;SDS011;7745;48.708;9.026;2022-12-07T18:27:22;15.10;;;11.80;;
15287;SDS011;7745;48.708;9.026;2022-12-07T18:29:49;16.27;;;11.80;;
15287;SDS011;7745;48.708;9.026;2022-12-07T18:32:18;15.83;;;12.10;;
15287;SDS011;7745;48.708;9.026;2022-12-07T18:34:45;17.20;;;12.50;;
15287;SDS011;7745;48.708;9.026;2022-12-07T18:37:11;19.97;;;12.80;;
15287;SDS011;7745;48.708;9.026;2022-12-07T18:39:40;17.73;;;13.10;;
15287;SDS011;7745;48.708;9.026;2022-12-07T18:42:07;17.20;;;12.80;;
15287;SDS011;7745;48.708;9.026;2022-12-07T18:44:33;20.17;;;12.80;;
15287;SDS011;7745;48.708;9.026;2022-12-07T18:47:00;17.90;;;12.90;;
15287;SDS011;7745;48.708;9.026;2022-12-07T18:49:27;16.23;;;12.30;;
15287;SDS011;7745;48.708;9.026;2022-12-07T18:51:54;18.73;;;12.27;;
15287;SDS011;7745;48.708;9.026;2022-12-07T18:54:21;16.90;;;11.73;;
15287;SDS011;7745;48.708;9.026;2022-12-07T18:56:49;18.17;;;11.57;;
15287;SDS011;7745;48.708;9.026;2022-12-07T18:59:16;17.00;;;11.83;;
15287;SDS011;7745;48.708;9.026;2022-12-07T19:02:15;16.87;;;12.00;;
15287;SDS011;7745;48.708;9.026;2022-12-07T19:04:43;21.20;;;12.40;;
15287;SDS011;7745;48.708;9.026;2022-12-07T19:07:10;18.10;;;12.43;;
15287;SDS011;7745;48.708;9.026;2022-12-07T19:09:41;18.17;;;12.63;;
15287;SDS011;7745;48.708;9.026;2022-12-07T19:12:11;20.67;;;12.67;;
15287;SDS011;7745;48.708;9.026;2022-12-07T19:14:38;18.10;;;13.10;;
15287;SDS011;7745;48.708;9.026;2022-12-07T19:17:06;18.20;;;12.67;;
15287;SDS011;7745;48.708;9.026;2022-12-07T19:19:36;16.43;;;11.83;;
15287;SDS011;7745;48.708;9.026;2022-12-07T19:22:04;15.50;;;10.70;;
15287;SDS011;7745;48.708;9.026;2022-12-07T19:24:32;18.07;;;9.77;;
15287;SDS011;7745;48.708;9.026;2022-12-07T19:26:59;13.03;;;9.30;;
15287;SDS011;7745;48.708;9.026;2022-12-07T19:29:28;13.37;;;9.43;;
15287;SDS011;7745;48.708;9.026;2022-12-07T19:31:56;12.23;;;8.97;;
15287;SDS011;7745;48.708;9.026;2022-12-07T19:34:23;13.93;;;8.93;;
15287;SDS011;7745;48.708;9.026;2022-12-07T19:36:50;15.20;;;8.27;;
15287;SDS011;7745;48.708;9.026;2022-12-07T19:39:17;12.50;;;8.63;;
15287;SDS011;7745;48.708;9.026;2022-12-07T19:41:44;14.37;;;8.83;;
15287;SDS011;7745;48.708;9.026;2022-12-07T19:44:12;14.83;;;8.97;;
15287;SDS011;7745;48.708;9.026;2022-12-07T19:46:41;10.13;;;8.67;;
15287;SDS011;7745;48.708;9.026;2022-12-07T19:49:11;14.17;;;9.00;;
15287;SDS011;7745;48.708;9.026;2022-12-07T19:51:40;13.47;;;9.60;;
15287;SDS011;7745;48.708;9.026;2022-12-07T19:54:08;12.73;;;8.23;;